createdAt,value
2019-02-28T00:01:59.467Z,13.00
2019-02-28T00:04:32.011Z,15.53
2019-02-28T00:06:57.190Z,13.70
2019-02-28T00:09:25.821Z,15.40
2019-02-28T00:11:54.384Z,16.47
2019-02-28T00:14:22.229Z,12.57
2019-02-28T00:16:50.227Z,11.20
2019-02-28T00:19:18.058Z,11.33
2019-02-28T00:21:46.155Z,17.03
2019-02-28T00:24:14.082Z,13.70
2019-02-28T00:26:46.290Z,13.13
2019-02-28T00:29:11.678Z,12.80
2019-02-28T00:31:39.611Z,11.40
2019-02-28T00:34:07.518Z,13.07
2019-02-28T00:36:35.383Z,10.93
2019-02-28T00:39:04.458Z,13.00
2019-02-28T00:41:32.438Z,13.17
2019-02-28T00:44:00.298Z,13.10
2019-02-28T00:46:28.210Z,12.83
2019-02-28T00:48:56.041Z,13.97
2019-02-28T00:51:23.911Z,14.07
2019-02-28T00:53:51.921Z,13.27
2019-02-28T00:56:19.750Z,16.63
2019-02-28T00:58:47.747Z,16.80
2019-02-28T01:01:15.747Z,14.40
2019-02-28T01:03:43.755Z,11.13
2019-02-28T01:06:11.605Z,11.33
2019-02-28T01:08:39.599Z,14.70
2019-02-28T01:11:10.403Z,11.33
2019-02-28T01:13:37.158Z,13.77
2019-02-28T01:16:05.149Z,14.03
2019-02-28T01:18:34.708Z,11.43
2019-02-28T01:21:02.806Z,10.70
2019-02-28T01:23:30.672Z,12.43
2019-02-28T01:25:58.617Z,11.63
2019-02-28T01:28:26.933Z,13.73
2019-02-28T01:30:55.664Z,13.50
2019-02-28T01:33:24.981Z,14.87
2019-02-28T01:35:53.501Z,11.07
2019-02-28T01:38:23.973Z,11.50
2019-02-28T01:40:51.163Z,12.07
2019-02-28T01:43:19.171Z,15.97
2019-02-28T01:45:47.285Z,13.33
2019-02-28T01:48:15.167Z,13.43
2019-02-28T01:50:43.140Z,14.50
2019-02-28T01:53:11.224Z,13.30
2019-02-28T01:55:39.074Z,13.60
2019-02-28T01:58:06.846Z,14.60
2019-02-28T02:00:34.757Z,14.80
2019-02-28T02:03:02.794Z,14.10
2019-02-28T02:05:30.632Z,13.70
2019-02-28T02:07:58.584Z,11.20
2019-02-28T02:10:26.474Z,12.83
2019-02-28T02:12:54.257Z,11.00
2019-02-28T02:15:22.274Z,13.70
2019-02-28T02:17:50.294Z,11.50
2019-02-28T02:20:18.162Z,15.07
2019-02-28T02:22:46.165Z,13.70
2019-02-28T02:25:14.180Z,11.30
2019-02-28T02:27:42.270Z,11.80
2019-02-28T02:30:15.056Z,16.20
2019-02-28T02:32:41.765Z,12.17
2019-02-28T02:35:10.872Z,14.80
2019-02-28T02:37:38.791Z,17.93
2019-02-28T02:40:07.312Z,14.10
2019-02-28T02:42:35.182Z,18.40
2019-02-28T02:45:05.187Z,11.70
2019-02-28T02:47:33.186Z,17.50
2019-02-28T02:50:01.155Z,10.53
2019-02-28T02:52:30.380Z,12.30
2019-02-28T02:54:58.563Z,12.83
2019-02-28T02:57:26.497Z,14.63
2019-02-28T02:59:54.582Z,15.30
2019-02-28T03:02:22.515Z,18.47
2019-02-28T03:04:54.357Z,12.07
2019-02-28T03:07:24.530Z,17.77
2019-02-28T03:09:49.901Z,13.13
2019-02-28T03:12:17.764Z,13.57
2019-02-28T03:14:48.799Z,14.27
2019-02-28T03:17:15.445Z,19.47
2019-02-28T03:19:43.354Z,10.63
2019-02-28T03:22:11.424Z,15.13
2019-02-28T03:24:39.355Z,11.57
2019-02-28T03:27:07.232Z,15.67
2019-02-28T03:29:35.170Z,19.27
2019-02-28T03:32:03.050Z,16.00
2019-02-28T03:34:30.908Z,22.67
2019-02-28T03:36:58.926Z,16.47
2019-02-28T03:39:26.765Z,19.33
2019-02-28T03:41:54.752Z,12.97
2019-02-28T03:44:22.663Z,12.93
2019-02-28T03:46:50.561Z,16.13
2019-02-28T03:49:18.449Z,15.50
2019-02-28T03:51:46.429Z,13.93
2019-02-28T03:54:14.355Z,15.73
2019-02-28T03:56:42.264Z,14.73
2019-02-28T03:59:10.270Z,13.10
2019-02-28T04:01:44.631Z,14.57
2019-02-28T04:04:12.263Z,10.77
2019-02-28T04:06:40.825Z,17.13
2019-02-28T04:09:08.500Z,14.30
2019-02-28T04:11:36.898Z,14.03
2019-02-28T04:14:04.724Z,16.23
2019-02-28T04:16:32.627Z,13.23
2019-02-28T04:19:00.483Z,13.03
2019-02-28T04:21:28.432Z,16.20
2019-02-28T04:23:56.345Z,14.53
2019-02-28T04:26:24.211Z,14.00
2019-02-28T04:28:54.725Z,11.67
2019-02-28T04:31:21.905Z,14.20
2019-02-28T04:33:49.735Z,13.00
2019-02-28T04:36:17.785Z,16.20
2019-02-28T04:38:45.668Z,12.23
2019-02-28T04:41:13.665Z,11.40
2019-02-28T04:43:44.167Z,13.87
2019-02-28T04:46:11.224Z,14.40
2019-02-28T04:48:39.073Z,11.40
2019-02-28T04:51:06.986Z,17.50
2019-02-28T04:53:34.815Z,12.00
2019-02-28T04:56:02.577Z,12.00
2019-02-28T04:58:30.628Z,14.83
2019-02-28T05:00:59.773Z,15.33
2019-02-28T05:03:28.922Z,15.27
2019-02-28T05:05:57.165Z,15.40
2019-02-28T05:08:25.083Z,12.40
2019-02-28T05:10:55.609Z,15.00
2019-02-28T05:13:22.511Z,10.00
2019-02-28T05:15:50.424Z,11.90
2019-02-28T05:18:18.283Z,11.97
2019-02-28T05:20:46.212Z,12.07
2019-02-28T05:23:14.124Z,11.60
2019-02-28T05:25:41.985Z,11.53
2019-02-28T05:28:09.937Z,14.13
2019-02-28T05:30:37.868Z,17.90
2019-02-28T05:33:06.604Z,16.83
2019-02-28T05:35:35.437Z,11.77
2019-02-28T05:38:03.354Z,11.53
2019-02-28T05:40:31.349Z,12.60
2019-02-28T05:42:59.380Z,12.53
2019-02-28T05:45:27.271Z,17.40
2019-02-28T05:47:55.235Z,14.07
2019-02-28T05:50:23.242Z,12.27
2019-02-28T05:52:51.071Z,16.27
2019-02-28T05:55:24.639Z,19.17
2019-02-28T05:57:48.806Z,16.93
2019-02-28T06:00:17.861Z,19.77
2019-02-28T06:02:45.871Z,20.40
2019-02-28T06:05:13.752Z,24.80
2019-02-28T06:07:41.544Z,19.97
2019-02-28T06:10:09.626Z,20.37
2019-02-28T06:12:40.526Z,21.40
2019-02-28T06:15:07.519Z,27.50
2019-02-28T06:17:35.353Z,43.33
2019-02-28T06:20:03.558Z,40.10
2019-02-28T06:22:36.124Z,39.50
2019-02-28T06:25:01.128Z,42.07
2019-02-28T06:27:28.954Z,48.93
2019-02-28T06:29:56.963Z,53.07
2019-02-28T06:32:24.804Z,59.47
2019-02-28T06:34:52.733Z,58.33
2019-02-28T06:37:20.636Z,59.03
2019-02-28T06:39:48.655Z,50.23
2019-02-28T06:42:16.642Z,33.83
2019-02-28T06:44:44.541Z,40.97
2019-02-28T06:47:14.116Z,35.70
2019-02-28T06:49:42.238Z,29.27
2019-02-28T06:52:10.107Z,27.47
2019-02-28T06:54:39.857Z,34.03
2019-02-28T06:57:07.790Z,29.60
2019-02-28T06:59:36.210Z,24.53
2019-02-28T07:02:05.237Z,25.27
2019-02-28T07:04:33.068Z,21.97
2019-02-28T07:07:00.985Z,19.63
2019-02-28T07:09:30.421Z,19.93
2019-02-28T07:11:58.510Z,19.10
2019-02-28T07:14:26.552Z,19.37
2019-02-28T07:16:54.527Z,15.63
2019-02-28T07:19:26.125Z,19.43
2019-02-28T07:21:52.170Z,16.30
2019-02-28T07:24:20.020Z,20.70
2019-02-28T07:26:48.311Z,21.03
2019-02-28T07:29:16.071Z,19.77
2019-02-28T07:31:44.040Z,23.63
2019-02-28T07:34:11.875Z,21.97
2019-02-28T07:36:41.527Z,25.77
2019-02-28T07:39:09.502Z,23.50
2019-02-28T07:41:37.763Z,23.93
2019-02-28T07:44:05.847Z,22.40
2019-02-28T07:46:33.800Z,27.03
2019-02-28T07:49:01.730Z,27.17
2019-02-28T07:51:29.613Z,27.37
2019-02-28T07:53:57.549Z,24.43
2019-02-28T07:56:25.485Z,24.47
2019-02-28T07:58:53.485Z,18.50
2019-02-28T08:01:24.561Z,21.50
2019-02-28T08:03:51.186Z,22.13
2019-02-28T08:06:19.099Z,19.90
2019-02-28T08:08:46.892Z,17.30
2019-02-28T08:11:14.869Z,12.00
2019-02-28T08:13:42.774Z,11.45
2019-02-28T08:16:10.638Z,15.43
2019-02-28T08:18:38.689Z,12.47
2019-02-28T08:21:08.696Z,12.03
2019-02-28T08:23:37.516Z,11.60
2019-02-28T08:26:05.919Z,8.20
2019-02-28T08:28:36.720Z,9.30
2019-02-28T08:31:03.566Z,8.10
2019-02-28T08:33:31.609Z,8.03
2019-02-28T08:35:59.613Z,7.67
2019-02-28T08:38:30.129Z,9.83
2019-02-28T08:40:57.247Z,9.40
2019-02-28T08:43:27.332Z,11.10
2019-02-28T08:45:54.970Z,7.33
2019-02-28T08:48:22.956Z,10.88
2019-02-28T08:50:52.625Z,9.15
2019-02-28T08:53:20.511Z,7.85
2019-02-28T08:55:48.558Z,9.53
2019-02-28T08:58:16.336Z,9.38
2019-02-28T09:00:44.219Z,9.43
2019-02-28T09:03:12.136Z,7.83
2019-02-28T09:05:39.834Z,9.70
2019-02-28T09:08:07.713Z,12.77
2019-02-28T09:10:37.424Z,11.03
2019-02-28T09:13:07.753Z,13.93
2019-02-28T09:15:34.892Z,10.10
2019-02-28T09:18:02.877Z,11.63
2019-02-28T09:20:30.727Z,9.87
2019-02-28T09:23:02.102Z,12.83
2019-02-28T09:25:28.562Z,11.70
2019-02-28T09:27:56.479Z,10.47
2019-02-28T09:30:26.451Z,12.17
2019-02-28T09:32:55.339Z,14.83
2019-02-28T09:35:23.246Z,13.60
2019-02-28T09:37:51.103Z,11.47
2019-02-28T09:40:19.044Z,10.47
2019-02-28T09:42:47.878Z,10.77
2019-02-28T09:45:17.368Z,10.37
2019-02-28T09:47:45.398Z,11.50
2019-02-28T09:50:14.222Z,12.17
2019-02-28T09:52:42.617Z,11.23
2019-02-28T09:55:10.838Z,14.73
2019-02-28T09:57:38.741Z,16.23
2019-02-28T10:00:11.651Z,15.57
2019-02-28T10:02:36.920Z,13.20
2019-02-28T10:05:06.660Z,12.67
2019-02-28T10:07:35.031Z,10.20
2019-02-28T10:10:02.975Z,10.33
2019-02-28T10:12:30.786Z,13.33
2019-02-28T10:15:00.615Z,12.30
2019-02-28T10:17:28.927Z,11.87
2019-02-28T10:19:58.655Z,15.80
2019-02-28T10:22:26.618Z,12.47
2019-02-28T10:24:54.454Z,11.40
2019-02-28T10:27:23.246Z,12.53
2019-02-28T10:29:52.162Z,9.40
2019-02-28T10:32:20.205Z,9.83
2019-02-28T10:34:48.124Z,10.63
2019-02-28T10:37:15.882Z,20.12
2019-02-28T10:39:43.842Z,21.12
2019-02-28T10:42:11.847Z,10.15
2019-02-28T10:44:39.896Z,10.05
2019-02-28T10:47:07.841Z,13.22
2019-02-28T10:49:35.712Z,16.95
2019-02-28T10:52:03.596Z,11.25
2019-02-28T10:54:31.433Z,10.20
2019-02-28T10:56:59.426Z,10.75
2019-02-28T10:59:27.382Z,10.40
2019-02-28T11:01:55.322Z,12.20
2019-02-28T11:04:23.321Z,11.88
2019-02-28T11:06:51.186Z,16.30
2019-02-28T11:09:21.824Z,13.93
2019-02-28T11:11:49.378Z,12.93
2019-02-28T11:14:17.438Z,15.13
2019-02-28T11:16:45.341Z,15.15
2019-02-28T11:19:13.870Z,12.90
2019-02-28T11:21:43.389Z,12.55
2019-02-28T11:24:11.492Z,12.33
2019-02-28T11:26:41.327Z,11.15
2019-02-28T11:29:09.197Z,11.12
2019-02-28T11:31:37.270Z,14.13
2019-02-28T11:34:05.221Z,14.15
2019-02-28T11:36:34.084Z,15.48
2019-02-28T11:39:03.288Z,15.18
2019-02-28T11:41:31.230Z,17.52
2019-02-28T11:43:59.098Z,17.73
2019-02-28T11:46:27.053Z,15.05
2019-02-28T11:48:55.105Z,13.58
2019-02-28T11:51:23.131Z,14.47
2019-02-28T11:53:51.014Z,14.38
2019-02-28T11:56:18.955Z,18.80
2019-02-28T11:58:51.289Z,13.78
2019-02-28T12:01:17.695Z,18.82
2019-02-28T12:03:45.727Z,14.93
2019-02-28T12:06:13.630Z,15.75
2019-02-28T12:08:44.546Z,17.20
2019-02-28T12:11:11.152Z,14.47
2019-02-28T12:13:40.192Z,13.88
2019-02-28T12:16:08.086Z,26.65
2019-02-28T12:18:39.726Z,14.13
2019-02-28T12:21:06.212Z,13.03
2019-02-28T12:23:34.138Z,10.72
2019-02-28T12:26:02.061Z,12.68
2019-02-28T12:28:30.029Z,14.35
2019-02-28T12:31:00.244Z,16.23
2019-02-28T12:33:27.810Z,12.15
2019-02-28T12:35:55.853Z,14.43
2019-02-28T12:38:25.931Z,13.65
2019-02-28T12:40:53.632Z,16.12
2019-02-28T12:43:21.503Z,14.03
2019-02-28T12:45:49.346Z,15.13
2019-02-28T12:48:17.238Z,12.17
2019-02-28T12:50:45.333Z,16.45
2019-02-28T12:53:13.248Z,12.90
2019-02-28T12:55:41.478Z,11.55
2019-02-28T12:58:09.362Z,12.07
2019-02-28T13:00:37.242Z,10.80
2019-02-28T13:03:05.184Z,13.48
2019-02-28T13:05:33.122Z,14.45
2019-02-28T13:08:01.053Z,12.60
2019-02-28T13:10:31.046Z,12.33
2019-02-28T13:13:06.126Z,15.05
2019-02-28T13:15:28.740Z,12.18
2019-02-28T13:17:56.642Z,12.58
2019-02-28T13:20:24.619Z,15.28
2019-02-28T13:22:55.703Z,12.88
2019-02-28T13:25:23.521Z,11.35
2019-02-28T13:27:51.799Z,16.03
2019-02-28T13:30:20.727Z,13.60
2019-02-28T13:32:48.555Z,14.43
2019-02-28T13:35:17.437Z,18.13
2019-02-28T13:37:45.434Z,13.50
2019-02-28T13:40:13.466Z,12.00
2019-02-28T13:42:42.301Z,11.93
2019-02-28T13:45:14.852Z,13.37
2019-02-28T13:47:42.020Z,15.97
2019-02-28T13:50:11.584Z,13.00
2019-02-28T13:52:39.619Z,13.30
2019-02-28T13:55:07.956Z,15.03
2019-02-28T13:57:35.797Z,14.27
2019-02-28T14:00:08.199Z,11.93
2019-02-28T14:02:34.820Z,10.70
2019-02-28T14:05:04.075Z,15.47
2019-02-28T14:07:33.725Z,14.83
2019-02-28T14:10:02.012Z,13.30
2019-02-28T14:12:30.090Z,11.53
2019-02-28T14:14:58.055Z,17.93
2019-02-28T14:17:25.900Z,13.50
2019-02-28T14:19:53.780Z,14.57
2019-02-28T14:22:21.704Z,12.53
2019-02-28T14:24:49.586Z,14.27
2019-02-28T14:27:17.247Z,14.40
2019-02-28T14:29:48.345Z,13.63
2019-02-28T14:32:14.837Z,17.40
2019-02-28T14:34:42.719Z,14.13
2019-02-28T14:37:10.722Z,14.77
2019-02-28T14:39:39.809Z,15.47
2019-02-28T14:42:08.339Z,14.90
2019-02-28T14:44:36.449Z,13.87
2019-02-28T14:47:04.290Z,20.03
2019-02-28T14:49:32.284Z,19.27
2019-02-28T14:52:00.345Z,15.87
2019-02-28T14:54:30.176Z,15.83
2019-02-28T14:56:57.995Z,12.53
2019-02-28T14:59:28.578Z,14.07
2019-02-28T15:01:55.585Z,18.07
2019-02-28T15:04:23.436Z,17.47
2019-02-28T15:06:51.440Z,14.90
2019-02-28T15:09:19.267Z,17.77
2019-02-28T15:11:48.178Z,19.97
2019-02-28T15:14:16.314Z,13.77
2019-02-28T15:16:44.237Z,13.40
2019-02-28T15:19:12.166Z,14.67
2019-02-28T15:21:42.581Z,13.97
2019-02-28T15:24:09.855Z,12.33
2019-02-28T15:26:37.711Z,13.33
2019-02-28T15:29:05.814Z,12.13
2019-02-28T15:31:33.761Z,11.33
2019-02-28T15:34:02.313Z,13.07
2019-02-28T15:36:31.268Z,16.40
2019-02-28T15:38:59.088Z,13.27
2019-02-28T15:41:26.951Z,12.40
2019-02-28T15:43:54.886Z,13.97
2019-02-28T15:46:22.920Z,18.27
2019-02-28T15:48:50.920Z,13.47
2019-02-28T15:51:18.807Z,12.87
2019-02-28T15:53:46.842Z,11.13
2019-02-28T15:56:19.504Z,14.90
2019-02-28T15:58:46.277Z,13.03
2019-02-28T16:01:14.120Z,12.37
2019-02-28T16:03:41.745Z,15.33
2019-02-28T16:06:09.677Z,17.20
2019-02-28T16:08:37.676Z,9.27
2019-02-28T16:11:06.224Z,11.60
2019-02-28T16:13:35.024Z,17.07
2019-02-28T16:16:03.028Z,23.03
2019-02-28T16:18:31.041Z,30.60
2019-02-28T16:20:59.042Z,32.50
2019-02-28T16:23:28.868Z,24.97
2019-02-28T16:25:56.655Z,19.60
2019-02-28T16:28:24.672Z,18.73
2019-02-28T16:30:52.667Z,12.77
2019-02-28T16:33:20.891Z,13.87
2019-02-28T16:35:51.381Z,12.47
2019-02-28T16:38:19.240Z,15.80
2019-02-28T16:40:47.106Z,17.03
2019-02-28T16:43:17.311Z,16.03
2019-02-28T16:45:47.360Z,20.93
2019-02-28T16:48:15.205Z,16.33
2019-02-28T16:50:43.245Z,17.47
2019-02-28T16:53:14.784Z,16.40
2019-02-28T16:55:40.761Z,21.97
2019-02-28T16:58:08.602Z,20.10
2019-02-28T17:00:39.540Z,15.47
2019-02-28T17:03:07.423Z,16.13
2019-02-28T17:05:36.077Z,15.37
2019-02-28T17:08:03.939Z,17.63
2019-02-28T17:10:33.296Z,16.40
2019-02-28T17:13:20.544Z,16.30
2019-02-28T17:16:13.957Z,17.53
2019-02-28T17:18:42.419Z,19.07
2019-02-28T17:21:16.880Z,19.30
2019-02-28T17:23:40.615Z,18.47
2019-02-28T17:26:08.700Z,31.13
2019-02-28T17:29:02.129Z,33.70
2019-02-28T17:31:55.342Z,26.70
2019-02-28T17:34:24.414Z,25.07
2019-02-28T17:36:53.045Z,25.23
2019-02-28T17:39:20.848Z,22.63
2019-02-28T17:41:48.855Z,20.33
2019-02-28T17:44:39.187Z,20.43
2019-02-28T17:47:13.175Z,17.60
2019-02-28T17:50:05.544Z,22.97
2019-02-28T17:52:35.622Z,22.30
2019-02-28T17:55:21.451Z,24.93
2019-02-28T17:58:11.360Z,28.93
2019-02-28T18:00:57.908Z,36.53
2019-02-28T18:03:57.376Z,41.80
2019-02-28T18:06:43.736Z,42.23
2019-02-28T18:09:25.107Z,39.47
2019-02-28T18:12:21.663Z,31.63
2019-02-28T18:15:17.926Z,20.13
2019-02-28T18:18:17.964Z,18.10
2019-02-28T18:21:00.842Z,21.03
2019-02-28T18:23:50.525Z,19.20
2019-02-28T18:26:39.083Z,18.43
2019-02-28T18:29:23.277Z,21.40
2019-02-28T18:31:53.859Z,18.90
2019-02-28T18:34:22.276Z,17.40
2019-02-28T18:36:50.188Z,22.03
2019-02-28T18:39:18.202Z,18.87
2019-02-28T18:41:46.243Z,20.50
2019-02-28T18:44:14.200Z,25.93
2019-02-28T18:46:42.111Z,29.07
2019-02-28T18:49:09.777Z,34.63
2019-02-28T18:51:37.694Z,30.47
2019-02-28T18:54:05.708Z,38.90
2019-02-28T18:56:52.750Z,37.43
2019-02-28T18:59:20.612Z,38.53
2019-02-28T19:01:48.458Z,38.70
2019-02-28T19:04:16.393Z,38.90
2019-02-28T19:06:44.388Z,38.77
2019-02-28T19:09:19.191Z,42.97
2019-02-28T19:11:47.068Z,44.17
2019-02-28T19:14:14.983Z,42.07
2019-02-28T19:16:42.872Z,37.37
2019-02-28T19:19:10.800Z,31.53
2019-02-28T19:21:38.632Z,33.83
2019-02-28T19:24:06.466Z,24.90
2019-02-28T19:26:34.374Z,22.73
2019-02-28T19:29:02.043Z,24.40
2019-02-28T19:31:29.979Z,24.40
2019-02-28T19:33:57.969Z,21.20
2019-02-28T19:36:25.625Z,28.07
2019-02-28T19:38:53.862Z,21.60
2019-02-28T19:41:21.672Z,22.77
2019-02-28T19:43:49.650Z,20.63
2019-02-28T19:46:17.539Z,23.93
2019-02-28T19:48:45.482Z,20.77
2019-02-28T19:51:13.354Z,21.77
2019-02-28T19:53:41.250Z,20.13
2019-02-28T19:56:09.092Z,20.07
2019-02-28T19:58:36.932Z,20.10
2019-02-28T20:01:04.867Z,19.47
2019-02-28T20:03:32.928Z,18.07
2019-02-28T20:06:00.789Z,22.70
2019-02-28T20:08:28.846Z,17.60
2019-02-28T20:10:56.917Z,20.13
2019-02-28T20:13:24.947Z,21.00
2019-02-28T20:15:53.017Z,18.67
2019-02-28T20:18:21.133Z,19.07
2019-02-28T20:20:49.202Z,22.70
2019-02-28T20:23:17.374Z,23.27
2019-02-28T20:25:45.445Z,21.90
2019-02-28T20:28:13.722Z,18.37
2019-02-28T20:30:41.735Z,22.07
2019-02-28T20:33:09.760Z,20.37
2019-02-28T20:35:37.933Z,21.40
2019-02-28T20:38:05.965Z,22.57
2019-02-28T20:40:33.972Z,16.73
2019-02-28T20:43:02.044Z,22.10
2019-02-28T20:45:30.433Z,19.73
2019-02-28T20:47:58.594Z,19.63
2019-02-28T20:50:28.001Z,23.60
2019-02-28T20:52:56.072Z,22.50
2019-02-28T20:55:24.307Z,18.13
2019-02-28T20:57:52.093Z,19.50
2019-02-28T21:00:23.633Z,19.37
2019-02-28T21:02:51.488Z,18.03
2019-02-28T21:05:19.660Z,19.37
2019-02-28T21:07:47.973Z,19.40
2019-02-28T21:10:16.114Z,19.77
2019-02-28T21:13:03.286Z,21.43
2019-02-28T21:15:31.438Z,26.63
2019-02-28T21:17:59.184Z,22.77
2019-02-28T21:20:27.130Z,26.50
2019-02-28T21:22:55.342Z,25.03
2019-02-28T21:25:23.475Z,28.57
2019-02-28T21:27:51.501Z,25.80
2019-02-28T21:30:19.724Z,25.10
2019-02-28T21:32:47.729Z,23.03
2019-02-28T21:35:16.257Z,23.47
2019-02-28T21:37:45.698Z,23.20
2019-02-28T21:40:16.249Z,21.70
2019-02-28T21:42:44.210Z,21.57
2019-02-28T21:45:14.414Z,20.70
2019-02-28T21:47:42.377Z,23.17
2019-02-28T21:50:11.630Z,22.37
2019-02-28T21:52:39.688Z,21.20
2019-02-28T21:55:08.984Z,20.43
2019-02-28T21:57:37.859Z,22.17
2019-02-28T22:00:07.623Z,24.37
2019-02-28T22:02:36.352Z,27.63
2019-02-28T22:05:05.243Z,21.57
2019-02-28T22:07:34.045Z,20.80
2019-02-28T22:10:01.965Z,21.23
2019-02-28T22:12:30.787Z,22.77
2019-02-28T22:14:59.681Z,22.83
2019-02-28T22:17:28.362Z,21.97
2019-02-28T22:19:56.435Z,22.47
2019-02-28T22:22:25.136Z,25.13
2019-02-28T22:24:53.052Z,24.50
2019-02-28T22:27:21.158Z,30.87
2019-02-28T22:29:49.154Z,26.47
2019-02-28T22:32:24.370Z,29.77
2019-02-28T22:35:09.846Z,25.23
2019-02-28T22:37:38.631Z,32.37
2019-02-28T22:40:06.659Z,33.03
2019-02-28T22:42:35.746Z,31.47
2019-02-28T22:45:03.891Z,29.23
2019-02-28T22:47:31.789Z,29.33
2019-02-28T22:49:59.722Z,26.77
2019-02-28T22:52:27.655Z,27.67
2019-02-28T22:54:55.536Z,27.93
2019-02-28T22:57:23.557Z,27.17
2019-02-28T22:59:51.476Z,25.90
2019-02-28T23:02:19.423Z,31.83
2019-02-28T23:04:47.443Z,29.03
2019-02-28T23:07:15.486Z,26.63
2019-02-28T23:09:43.453Z,25.23
2019-02-28T23:12:11.339Z,19.53
2019-02-28T23:14:39.407Z,19.30
2019-02-28T23:17:07.584Z,17.40
2019-02-28T23:19:35.531Z,23.30
2019-02-28T23:22:03.373Z,21.47
2019-02-28T23:24:31.327Z,22.17
2019-02-28T23:27:12.197Z,21.53
2019-02-28T23:29:41.732Z,20.10
2019-02-28T23:32:26.134Z,17.47
2019-02-28T23:34:54.455Z,17.67
2019-02-28T23:37:22.282Z,17.00
2019-02-28T23:39:50.273Z,21.90
2019-02-28T23:42:19.867Z,17.20
2019-02-28T23:44:47.996Z,19.23
2019-02-28T23:47:15.970Z,16.47
2019-02-28T23:49:43.799Z,17.10
2019-02-28T23:52:11.888Z,14.97
2019-02-28T23:54:39.902Z,18.00
2019-02-28T23:57:07.834Z,15.90
2019-02-28T23:59:35.761Z,14.27
